sensor_id;sensor_type;location;lat;lon;timestamp;P1;durP1;ratioP1;P2;durP2;ratioP2
59458;SDS011;45269;43.568;22.244;2023-09-19T00:02:12;11.13;;;9.68;;
59458;SDS011;45269;43.568;22.244;2023-09-19T00:04:37;12.75;;;10.98;;
59458;SDS011;45269;43.568;22.244;2023-09-19T00:07:05;19.67;;;10.70;;
59458;SDS011;45269;43.568;22.244;2023-09-19T00:09:30;11.07;;;9.25;;
59458;SDS011;45269;43.568;22.244;2023-09-19T00:12:02;13.43;;;9.85;;
59458;SDS011;45269;43.568;22.244;2023-09-19T00:14:27;16.50;;;10.05;;
59458;SDS011;45269;43.568;22.244;2023-09-19T00:16:53;13.07;;;10.18;;
59458;SDS011;45269;43.568;22.244;2023-09-19T00:19:19;12.50;;;10.25;;
59458;SDS011;45269;43.568;22.244;2023-09-19T00:21:45;11.30;;;10.25;;
59458;SDS011;45269;43.568;22.244;2023-09-19T00:24:12;13.07;;;10.40;;
59458;SDS011;45269;43.568;22.244;2023-09-19T00:26:39;11.93;;;10.32;;
59458;SDS011;45269;43.568;22.244;2023-09-19T00:29:04;11.82;;;9.32;;
59458;SDS011;45269;43.568;22.244;2023-09-19T00:31:30;10.20;;;8.93;;
59458;SDS011;45269;43.568;22.244;2023-09-19T00:33:55;10.43;;;9.15;;
59458;SDS011;45269;43.568;22.244;2023-09-19T00:36:24;12.50;;;8.93;;
59458;SDS011;45269;43.568;22.244;2023-09-19T00:38:50;10.45;;;9.07;;
59458;SDS011;45269;43.568;22.244;2023-09-19T00:41:15;9.95;;;9.05;;
59458;SDS011;45269;43.568;22.244;2023-09-19T00:43:40;11.13;;;9.88;;
59458;SDS011;45269;43.568;22.244;2023-09-19T00:46:06;11.45;;;10.25;;
59458;SDS011;45269;43.568;22.244;2023-09-19T00:48:31;11.02;;;9.45;;
59458;SDS011;45269;43.568;22.244;2023-09-19T00:51:02;12.05;;;9.95;;
59458;SDS011;45269;43.568;22.244;2023-09-19T00:53:29;10.65;;;9.60;;
59458;SDS011;45269;43.568;22.244;2023-09-19T00:55:55;9.63;;;8.65;;
59458;SDS011;45269;43.568;22.244;2023-09-19T00:58:21;10.40;;;9.38;;
59458;SDS011;45269;43.568;22.244;2023-09-19T01:00:49;10.35;;;9.30;;
59458;SDS011;45269;43.568;22.244;2023-09-19T01:03:16;9.65;;;8.82;;
59458;SDS011;45269;43.568;22.244;2023-09-19T01:05:43;9.65;;;8.75;;
59458;SDS011;45269;43.568;22.244;2023-09-19T01:08:09;11.00;;;9.90;;
59458;SDS011;45269;43.568;22.244;2023-09-19T01:10:36;13.55;;;11.50;;
59458;SDS011;45269;43.568;22.244;2023-09-19T01:16:03;13.13;;;11.90;;
59458;SDS011;45269;43.568;22.244;2023-09-19T01:26:44;13.30;;;8.20;;
59458;SDS011;45269;43.568;22.244;2023-09-19T01:31:44;9.23;;;8.27;;
59458;SDS011;45269;43.568;22.244;2023-09-19T01:34:10;9.77;;;8.77;;
59458;SDS011;45269;43.568;22.244;2023-09-19T01:36:36;9.63;;;8.82;;
59458;SDS011;45269;43.568;22.244;2023-09-19T01:39:07;10.60;;;9.60;;
59458;SDS011;45269;43.568;22.244;2023-09-19T01:44:24;9.27;;;8.20;;
59458;SDS011;45269;43.568;22.244;2023-09-19T01:46:50;10.05;;;8.85;;
59458;SDS011;45269;43.568;22.244;2023-09-19T01:52:03;11.30;;;9.20;;
59458;SDS011;45269;43.568;22.244;2023-09-19T01:54:32;9.57;;;8.68;;
59458;SDS011;45269;43.568;22.244;2023-09-19T01:59:31;9.48;;;8.50;;
59458;SDS011;45269;43.568;22.244;2023-09-19T02:01:58;9.55;;;8.60;;
59458;SDS011;45269;43.568;22.244;2023-09-19T02:04:24;9.95;;;9.00;;
59458;SDS011;45269;43.568;22.244;2023-09-19T02:06:52;12.40;;;9.80;;
59458;SDS011;45269;43.568;22.244;2023-09-19T02:09:18;10.60;;;9.43;;
59458;SDS011;45269;43.568;22.244;2023-09-19T02:11:43;10.32;;;9.43;;
59458;SDS011;45269;43.568;22.244;2023-09-19T02:14:08;12.40;;;10.15;;
59458;SDS011;45269;43.568;22.244;2023-09-19T02:16:37;13.90;;;10.05;;
59458;SDS011;45269;43.568;22.244;2023-09-19T02:19:02;10.43;;;9.52;;
59458;SDS011;45269;43.568;22.244;2023-09-19T02:21:30;9.82;;;8.98;;
59458;SDS011;45269;43.568;22.244;2023-09-19T02:23:57;11.65;;;9.75;;
59458;SDS011;45269;43.568;22.244;2023-09-19T02:26:23;10.27;;;9.38;;
59458;SDS011;45269;43.568;22.244;2023-09-19T02:28:49;11.80;;;9.88;;
59458;SDS011;45269;43.568;22.244;2023-09-19T02:31:14;11.40;;;9.82;;
59458;SDS011;45269;43.568;22.244;2023-09-19T02:33:41;10.40;;;9.30;;
59458;SDS011;45269;43.568;22.244;2023-09-19T02:36:07;9.80;;;8.95;;
59458;SDS011;45269;43.568;22.244;2023-09-19T02:38:33;9.57;;;8.55;;
59458;SDS011;45269;43.568;22.244;2023-09-19T02:40:59;9.57;;;8.38;;
59458;SDS011;45269;43.568;22.244;2023-09-19T02:43:24;10.85;;;8.77;;
59458;SDS011;45269;43.568;22.244;2023-09-19T02:45:50;9.10;;;8.30;;
59458;SDS011;45269;43.568;22.244;2023-09-19T02:48:15;9.63;;;8.68;;
59458;SDS011;45269;43.568;22.244;2023-09-19T02:50:42;9.10;;;8.18;;
59458;SDS011;45269;43.568;22.244;2023-09-19T02:53:08;9.45;;;8.55;;
59458;SDS011;45269;43.568;22.244;2023-09-19T02:55:37;11.45;;;9.07;;
59458;SDS011;45269;43.568;22.244;2023-09-19T02:58:05;9.65;;;8.75;;
59458;SDS011;45269;43.568;22.244;2023-09-19T03:00:33;10.77;;;9.00;;
59458;SDS011;45269;43.568;22.244;2023-09-19T03:02:59;10.98;;;9.73;;
59458;SDS011;45269;43.568;22.244;2023-09-19T03:05:24;11.25;;;9.27;;
59458;SDS011;45269;43.568;22.244;2023-09-19T03:07:50;10.38;;;9.00;;
59458;SDS011;45269;43.568;22.244;2023-09-19T03:10:16;15.63;;;9.05;;
59458;SDS011;45269;43.568;22.244;2023-09-19T03:12:42;11.55;;;9.10;;
59458;SDS011;45269;43.568;22.244;2023-09-19T03:15:08;13.48;;;9.38;;
59458;SDS011;45269;43.568;22.244;2023-09-19T03:17:36;12.60;;;11.30;;
59458;SDS011;45269;43.568;22.244;2023-09-19T03:20:02;11.90;;;10.00;;
59458;SDS011;45269;43.568;22.244;2023-09-19T03:22:33;11.25;;;8.60;;
59458;SDS011;45269;43.568;22.244;2023-09-19T03:24:59;11.55;;;9.00;;
59458;SDS011;45269;43.568;22.244;2023-09-19T03:27:25;10.85;;;9.20;;
59458;SDS011;45269;43.568;22.244;2023-09-19T03:29:52;11.75;;;9.63;;
59458;SDS011;45269;43.568;22.244;2023-09-19T03:32:17;12.00;;;9.82;;
59458;SDS011;45269;43.568;22.244;2023-09-19T03:34:42;10.07;;;8.95;;
59458;SDS011;45269;43.568;22.244;2023-09-19T03:37:11;9.75;;;8.73;;
59458;SDS011;45269;43.568;22.244;2023-09-19T03:39:36;9.80;;;8.90;;
59458;SDS011;45269;43.568;22.244;2023-09-19T03:42:02;10.65;;;9.30;;
59458;SDS011;45269;43.568;22.244;2023-09-19T03:44:32;9.35;;;8.45;;
59458;SDS011;45269;43.568;22.244;2023-09-19T03:46:57;9.27;;;8.38;;
59458;SDS011;45269;43.568;22.244;2023-09-19T03:49:22;11.10;;;8.82;;
59458;SDS011;45269;43.568;22.244;2023-09-19T03:51:48;12.20;;;9.90;;
59458;SDS011;45269;43.568;22.244;2023-09-19T03:54:13;10.68;;;9.55;;
59458;SDS011;45269;43.568;22.244;2023-09-19T03:56:39;10.70;;;9.60;;
59458;SDS011;45269;43.568;22.244;2023-09-19T03:59:04;10.95;;;9.95;;
59458;SDS011;45269;43.568;22.244;2023-09-19T04:01:29;11.45;;;10.40;;
59458;SDS011;45269;43.568;22.244;2023-09-19T04:03:57;10.65;;;9.68;;
59458;SDS011;45269;43.568;22.244;2023-09-19T04:06:22;12.48;;;10.13;;
59458;SDS011;45269;43.568;22.244;2023-09-19T04:08:48;12.18;;;10.82;;
59458;SDS011;45269;43.568;22.244;2023-09-19T04:11:13;12.68;;;10.23;;
59458;SDS011;45269;43.568;22.244;2023-09-19T04:13:39;12.07;;;10.57;;
59458;SDS011;45269;43.568;22.244;2023-09-19T04:16:04;11.88;;;10.68;;
59458;SDS011;45269;43.568;22.244;2023-09-19T04:18:31;12.55;;;10.63;;
59458;SDS011;45269;43.568;22.244;2023-09-19T04:20:58;14.35;;;10.55;;
59458;SDS011;45269;43.568;22.244;2023-09-19T04:23:23;12.15;;;9.93;;
59458;SDS011;45269;43.568;22.244;2023-09-19T04:25:48;12.38;;;11.07;;
59458;SDS011;45269;43.568;22.244;2023-09-19T04:28:14;12.20;;;10.98;;
59458;SDS011;45269;43.568;22.244;2023-09-19T04:30:40;11.75;;;10.65;;
59458;SDS011;45269;43.568;22.244;2023-09-19T04:33:06;14.52;;;10.60;;
59458;SDS011;45269;43.568;22.244;2023-09-19T04:35:31;14.45;;;11.15;;
59458;SDS011;45269;43.568;22.244;2023-09-19T04:37:57;12.93;;;10.98;;
59458;SDS011;45269;43.568;22.244;2023-09-19T04:40:22;14.50;;;11.38;;
59458;SDS011;45269;43.568;22.244;2023-09-19T04:42:56;15.07;;;11.70;;
59458;SDS011;45269;43.568;22.244;2023-09-19T04:45:25;13.02;;;11.27;;
59458;SDS011;45269;43.568;22.244;2023-09-19T04:47:51;13.07;;;10.70;;
59458;SDS011;45269;43.568;22.244;2023-09-19T04:50:17;10.90;;;9.80;;
59458;SDS011;45269;43.568;22.244;2023-09-19T04:52:42;10.98;;;9.88;;
59458;SDS011;45269;43.568;22.244;2023-09-19T04:55:10;10.25;;;9.32;;
59458;SDS011;45269;43.568;22.244;2023-09-19T04:57:35;12.52;;;9.82;;
59458;SDS011;45269;43.568;22.244;2023-09-19T05:00:02;10.73;;;9.68;;
59458;SDS011;45269;43.568;22.244;2023-09-19T05:02:29;11.73;;;10.05;;
59458;SDS011;45269;43.568;22.244;2023-09-19T05:04:55;12.18;;;10.60;;
59458;SDS011;45269;43.568;22.244;2023-09-19T05:07:24;10.35;;;9.45;;
59458;SDS011;45269;43.568;22.244;2023-09-19T05:09:51;13.10;;;10.32;;
59458;SDS011;45269;43.568;22.244;2023-09-19T05:12:16;13.18;;;10.77;;
59458;SDS011;45269;43.568;22.244;2023-09-19T05:14:46;13.57;;;12.18;;
59458;SDS011;45269;43.568;22.244;2023-09-19T05:17:11;13.63;;;12.38;;
59458;SDS011;45269;43.568;22.244;2023-09-19T05:19:38;15.38;;;11.98;;
59458;SDS011;45269;43.568;22.244;2023-09-19T05:22:03;12.10;;;10.77;;
59458;SDS011;45269;43.568;22.244;2023-09-19T05:24:29;12.63;;;11.32;;
59458;SDS011;45269;43.568;22.244;2023-09-19T05:26:55;12.82;;;11.40;;
59458;SDS011;45269;43.568;22.244;2023-09-19T05:29:22;12.68;;;11.57;;
59458;SDS011;45269;43.568;22.244;2023-09-19T05:31:47;13.77;;;12.43;;
59458;SDS011;45269;43.568;22.244;2023-09-19T05:34:13;14.20;;;11.65;;
59458;SDS011;45269;43.568;22.244;2023-09-19T05:36:38;13.45;;;12.15;;
59458;SDS011;45269;43.568;22.244;2023-09-19T05:39:04;14.38;;;12.82;;
59458;SDS011;45269;43.568;22.244;2023-09-19T05:41:33;15.32;;;13.73;;
59458;SDS011;45269;43.568;22.244;2023-09-19T05:43:59;13.73;;;12.40;;
59458;SDS011;45269;43.568;22.244;2023-09-19T05:46:24;14.88;;;12.90;;
59458;SDS011;45269;43.568;22.244;2023-09-19T05:48:54;13.30;;;11.93;;
59458;SDS011;45269;43.568;22.244;2023-09-19T05:51:21;14.25;;;12.80;;
59458;SDS011;45269;43.568;22.244;2023-09-19T05:53:48;12.48;;;11.23;;
59458;SDS011;45269;43.568;22.244;2023-09-19T05:56:13;12.75;;;11.45;;
59458;SDS011;45269;43.568;22.244;2023-09-19T05:58:40;13.65;;;12.27;;
59458;SDS011;45269;43.568;22.244;2023-09-19T06:01:08;14.07;;;12.60;;
59458;SDS011;45269;43.568;22.244;2023-09-19T06:03:34;12.02;;;10.88;;
59458;SDS011;45269;43.568;22.244;2023-09-19T06:06:00;13.00;;;11.63;;
59458;SDS011;45269;43.568;22.244;2023-09-19T06:08:26;19.75;;;12.35;;
59458;SDS011;45269;43.568;22.244;2023-09-19T06:10:51;16.05;;;12.48;;
59458;SDS011;45269;43.568;22.244;2023-09-19T06:13:17;14.52;;;12.90;;
59458;SDS011;45269;43.568;22.244;2023-09-19T06:15:43;14.55;;;13.05;;
59458;SDS011;45269;43.568;22.244;2023-09-19T06:18:10;16.00;;;13.35;;
59458;SDS011;45269;43.568;22.244;2023-09-19T06:20:38;13.57;;;12.30;;
59458;SDS011;45269;43.568;22.244;2023-09-19T06:23:09;13.05;;;11.68;;
59458;SDS011;45269;43.568;22.244;2023-09-19T06:25:35;13.02;;;11.60;;
59458;SDS011;45269;43.568;22.244;2023-09-19T06:28:00;14.45;;;12.52;;
59458;SDS011;45269;43.568;22.244;2023-09-19T06:30:30;14.73;;;12.90;;
59458;SDS011;45269;43.568;22.244;2023-09-19T06:32:56;12.55;;;11.45;;
59458;SDS011;45269;43.568;22.244;2023-09-19T06:35:21;11.40;;;10.30;;
59458;SDS011;45269;43.568;22.244;2023-09-19T06:37:46;11.50;;;10.40;;
59458;SDS011;45269;43.568;22.244;2023-09-19T06:40:13;9.55;;;8.75;;
59458;SDS011;45269;43.568;22.244;2023-09-19T06:42:39;9.20;;;8.27;;
59458;SDS011;45269;43.568;22.244;2023-09-19T06:45:05;8.85;;;7.95;;
59458;SDS011;45269;43.568;22.244;2023-09-19T06:47:31;10.20;;;7.88;;
59458;SDS011;45269;43.568;22.244;2023-09-19T06:49:56;9.88;;;8.75;;
59458;SDS011;45269;43.568;22.244;2023-09-19T06:52:22;9.55;;;8.23;;
59458;SDS011;45269;43.568;22.244;2023-09-19T06:54:47;9.55;;;8.57;;
59458;SDS011;45269;43.568;22.244;2023-09-19T06:57:15;9.55;;;8.65;;
59458;SDS011;45269;43.568;22.244;2023-09-19T06:59:40;10.25;;;8.82;;
59458;SDS011;45269;43.568;22.244;2023-09-19T07:02:06;9.40;;;8.38;;
59458;SDS011;45269;43.568;22.244;2023-09-19T07:04:31;9.00;;;8.10;;
59458;SDS011;45269;43.568;22.244;2023-09-19T07:06:57;9.57;;;8.57;;
59458;SDS011;45269;43.568;22.244;2023-09-19T07:09:23;8.82;;;7.97;;
59458;SDS011;45269;43.568;22.244;2023-09-19T07:11:48;14.45;;;11.00;;
59458;SDS011;45269;43.568;22.244;2023-09-19T07:14:16;12.63;;;9.98;;
59458;SDS011;45269;43.568;22.244;2023-09-19T07:16:41;10.55;;;9.45;;
59458;SDS011;45269;43.568;22.244;2023-09-19T07:19:09;10.25;;;9.25;;
59458;SDS011;45269;43.568;22.244;2023-09-19T07:21:35;9.45;;;8.55;;
59458;SDS011;45269;43.568;22.244;2023-09-19T07:24:09;9.38;;;8.52;;
59458;SDS011;45269;43.568;22.244;2023-09-19T07:26:35;9.00;;;8.10;;
59458;SDS011;45269;43.568;22.244;2023-09-19T07:29:00;8.55;;;7.75;;
59458;SDS011;45269;43.568;22.244;2023-09-19T07:31:28;11.02;;;8.13;;
59458;SDS011;45269;43.568;22.244;2023-09-19T07:33:54;10.18;;;8.65;;
59458;SDS011;45269;43.568;22.244;2023-09-19T07:36:20;9.32;;;8.45;;
59458;SDS011;45269;43.568;22.244;2023-09-19T07:38:45;11.85;;;8.18;;
59458;SDS011;45269;43.568;22.244;2023-09-19T07:41:11;9.23;;;7.63;;
59458;SDS011;45269;43.568;22.244;2023-09-19T07:43:36;8.75;;;7.65;;
59458;SDS011;45269;43.568;22.244;2023-09-19T07:46:07;9.10;;;8.02;;
59458;SDS011;45269;43.568;22.244;2023-09-19T07:48:34;8.80;;;7.90;;
59458;SDS011;45269;43.568;22.244;2023-09-19T07:51:04;10.95;;;7.68;;
59458;SDS011;45269;43.568;22.244;2023-09-19T07:53:29;10.05;;;7.80;;
59458;SDS011;45269;43.568;22.244;2023-09-19T07:56:05;7.60;;;6.78;;
59458;SDS011;45269;43.568;22.244;2023-09-19T07:58:30;11.20;;;7.65;;
59458;SDS011;45269;43.568;22.244;2023-09-19T08:00:56;12.35;;;8.07;;
59458;SDS011;45269;43.568;22.244;2023-09-19T08:03:21;8.40;;;7.57;;
59458;SDS011;45269;43.568;22.244;2023-09-19T08:05:47;15.13;;;7.38;;
59458;SDS011;45269;43.568;22.244;2023-09-19T08:08:13;8.98;;;7.10;;
59458;SDS011;45269;43.568;22.244;2023-09-19T08:10:39;7.85;;;7.15;;
59458;SDS011;45269;43.568;22.244;2023-09-19T08:13:07;10.35;;;7.32;;
59458;SDS011;45269;43.568;22.244;2023-09-19T08:15:36;8.25;;;6.97;;
59458;SDS011;45269;43.568;22.244;2023-09-19T08:18:08;14.10;;;6.47;;
59458;SDS011;45269;43.568;22.244;2023-09-19T08:20:35;7.15;;;6.45;;
59458;SDS011;45269;43.568;22.244;2023-09-19T08:23:03;7.82;;;7.03;;
59458;SDS011;45269;43.568;22.244;2023-09-19T08:25:28;7.93;;;6.10;;
59458;SDS011;45269;43.568;22.244;2023-09-19T08:27:54;8.00;;;6.78;;
59458;SDS011;45269;43.568;22.244;2023-09-19T08:30:23;7.30;;;6.60;;
59458;SDS011;45269;43.568;22.244;2023-09-19T08:32:49;14.23;;;8.55;;
59458;SDS011;45269;43.568;22.244;2023-09-19T08:35:14;7.90;;;6.78;;
59458;SDS011;45269;43.568;22.244;2023-09-19T08:37:40;8.93;;;7.22;;
59458;SDS011;45269;43.568;22.244;2023-09-19T08:40:05;11.15;;;9.88;;
59458;SDS011;45269;43.568;22.244;2023-09-19T08:42:56;9.32;;;7.70;;
59458;SDS011;45269;43.568;22.244;2023-09-19T08:45:23;8.05;;;6.28;;
59458;SDS011;45269;43.568;22.244;2023-09-19T08:50:33;6.70;;;6.10;;
59458;SDS011;45269;43.568;22.244;2023-09-19T08:53:00;6.88;;;6.18;;
59458;SDS011;45269;43.568;22.244;2023-09-19T08:55:29;6.07;;;5.47;;
59458;SDS011;45269;43.568;22.244;2023-09-19T08:58:02;7.73;;;7.03;;
59458;SDS011;45269;43.568;22.244;2023-09-19T09:00:28;7.93;;;7.22;;
59458;SDS011;45269;43.568;22.244;2023-09-19T09:02:55;10.13;;;8.50;;
59458;SDS011;45269;43.568;22.244;2023-09-19T09:05:21;7.53;;;6.68;;
59458;SDS011;45269;43.568;22.244;2023-09-19T09:07:48;7.43;;;6.60;;
59458;SDS011;45269;43.568;22.244;2023-09-19T09:10:15;7.45;;;6.03;;
59458;SDS011;45269;43.568;22.244;2023-09-19T09:12:41;8.90;;;6.38;;
59458;SDS011;45269;43.568;22.244;2023-09-19T09:15:08;7.20;;;6.30;;
59458;SDS011;45269;43.568;22.244;2023-09-19T09:17:36;6.80;;;5.93;;
59458;SDS011;45269;43.568;22.244;2023-09-19T09:20:02;7.57;;;5.90;;
59458;SDS011;45269;43.568;22.244;2023-09-19T09:22:30;5.72;;;5.20;;
59458;SDS011;45269;43.568;22.244;2023-09-19T09:24:57;7.15;;;5.82;;
59458;SDS011;45269;43.568;22.244;2023-09-19T09:27:23;5.65;;;5.15;;
59458;SDS011;45269;43.568;22.244;2023-09-19T09:29:49;6.65;;;5.82;;
59458;SDS011;45269;43.568;22.244;2023-09-19T09:34:43;6.22;;;5.60;;
59458;SDS011;45269;43.568;22.244;2023-09-19T09:37:12;6.15;;;5.57;;
59458;SDS011;45269;43.568;22.244;2023-09-19T09:39:39;7.05;;;5.65;;
59458;SDS011;45269;43.568;22.244;2023-09-19T09:42:05;7.45;;;5.70;;
59458;SDS011;45269;43.568;22.244;2023-09-19T09:44:31;7.10;;;5.47;;
59458;SDS011;45269;43.568;22.244;2023-09-19T09:46:57;9.27;;;5.50;;
59458;SDS011;45269;43.568;22.244;2023-09-19T09:49:47;19.50;;;6.00;;
59458;SDS011;45269;43.568;22.244;2023-09-19T09:52:19;6.18;;;5.60;;
59458;SDS011;45269;43.568;22.244;2023-09-19T09:54:58;5.88;;;5.38;;
59458;SDS011;45269;43.568;22.244;2023-09-19T09:57:25;6.90;;;5.47;;
59458;SDS011;45269;43.568;22.244;2023-09-19T09:59:55;6.82;;;5.63;;
59458;SDS011;45269;43.568;22.244;2023-09-19T10:02:27;6.30;;;5.65;;
59458;SDS011;45269;43.568;22.244;2023-09-19T10:05:03;8.45;;;5.75;;
59458;SDS011;45269;43.568;22.244;2023-09-19T10:07:40;6.32;;;5.78;;
59458;SDS011;45269;43.568;22.244;2023-09-19T10:10:28;6.65;;;5.95;;
59458;SDS011;45269;43.568;22.244;2023-09-19T10:12:54;7.95;;;6.03;;
59458;SDS011;45269;43.568;22.244;2023-09-19T10:15:21;9.85;;;6.13;;
59458;SDS011;45269;43.568;22.244;2023-09-19T10:17:49;7.88;;;5.88;;
59458;SDS011;45269;43.568;22.244;2023-09-19T10:20:23;6.97;;;6.28;;
59458;SDS011;45269;43.568;22.244;2023-09-19T10:23:03;8.02;;;6.25;;
59458;SDS011;45269;43.568;22.244;2023-09-19T10:25:34;6.25;;;5.65;;
59458;SDS011;45269;43.568;22.244;2023-09-19T10:28:02;7.55;;;6.75;;
59458;SDS011;45269;43.568;22.244;2023-09-19T10:30:28;7.10;;;6.18;;
59458;SDS011;45269;43.568;22.244;2023-09-19T10:33:02;8.18;;;6.68;;
59458;SDS011;45269;43.568;22.244;2023-09-19T10:35:28;8.00;;;6.53;;
59458;SDS011;45269;43.568;22.244;2023-09-19T10:37:54;9.73;;;6.25;;
59458;SDS011;45269;43.568;22.244;2023-09-19T10:40:22;8.63;;;6.97;;
59458;SDS011;45269;43.568;22.244;2023-09-19T10:42:55;9.15;;;6.80;;
59458;SDS011;45269;43.568;22.244;2023-09-19T10:45:23;7.40;;;6.32;;
59458;SDS011;45269;43.568;22.244;2023-09-19T10:47:50;9.10;;;6.22;;
59458;SDS011;45269;43.568;22.244;2023-09-19T10:50:19;7.40;;;6.70;;
59458;SDS011;45269;43.568;22.244;2023-09-19T10:52:46;9.13;;;6.95;;
59458;SDS011;45269;43.568;22.244;2023-09-19T10:55:18;9.83;;;7.20;;
59458;SDS011;45269;43.568;22.244;2023-09-19T10:57:45;11.13;;;7.00;;
59458;SDS011;45269;43.568;22.244;2023-09-19T11:00:11;8.65;;;7.72;;
59458;SDS011;45269;43.568;22.244;2023-09-19T11:06:06;13.10;;;7.25;;
59458;SDS011;45269;43.568;22.244;2023-09-19T11:22:21;7.18;;;6.13;;
59458;SDS011;45269;43.568;22.244;2023-09-19T11:24:47;9.98;;;5.90;;
59458;SDS011;45269;43.568;22.244;2023-09-19T11:27:13;7.57;;;6.00;;
59458;SDS011;45269;43.568;22.244;2023-09-19T11:29:39;8.90;;;5.47;;
59458;SDS011;45269;43.568;22.244;2023-09-19T11:32:05;6.70;;;5.85;;
59458;SDS011;45269;43.568;22.244;2023-09-19T11:39:39;13.10;;;6.43;;
59458;SDS011;45269;43.568;22.244;2023-09-19T11:44:52;6.70;;;6.00;;
59458;SDS011;45269;43.568;22.244;2023-09-19T11:47:21;7.78;;;5.93;;
59458;SDS011;45269;43.568;22.244;2023-09-19T11:49:47;8.15;;;6.22;;
59458;SDS011;45269;43.568;22.244;2023-09-19T11:52:18;7.65;;;6.00;;
59458;SDS011;45269;43.568;22.244;2023-09-19T11:54:47;6.78;;;6.13;;
59458;SDS011;45269;43.568;22.244;2023-09-19T11:57:22;7.80;;;5.97;;
59458;SDS011;45269;43.568;22.244;2023-09-19T11:59:47;6.85;;;6.00;;
59458;SDS011;45269;43.568;22.244;2023-09-19T12:02:14;8.32;;;6.03;;
59458;SDS011;45269;43.568;22.244;2023-09-19T12:04:44;6.15;;;5.55;;
59458;SDS011;45269;43.568;22.244;2023-09-19T12:07:13;8.50;;;6.10;;
59458;SDS011;45269;43.568;22.244;2023-09-19T12:09:44;6.57;;;5.97;;
59458;SDS011;45269;43.568;22.244;2023-09-19T12:12:25;6.82;;;5.93;;
59458;SDS011;45269;43.568;22.244;2023-09-19T12:14:55;8.00;;;6.28;;
59458;SDS011;45269;43.568;22.244;2023-09-19T12:17:23;6.70;;;5.82;;
59458;SDS011;45269;43.568;22.244;2023-09-19T12:19:52;6.80;;;5.93;;
59458;SDS011;45269;43.568;22.244;2023-09-19T12:22:18;7.28;;;5.50;;
59458;SDS011;45269;43.568;22.244;2023-09-19T12:24:45;7.80;;;5.85;;
59458;SDS011;45269;43.568;22.244;2023-09-19T12:27:11;13.43;;;6.10;;
59458;SDS011;45269;43.568;22.244;2023-09-19T12:29:44;6.25;;;5.20;;
59458;SDS011;45269;43.568;22.244;2023-09-19T12:32:10;6.13;;;5.53;;
59458;SDS011;45269;43.568;22.244;2023-09-19T12:34:36;5.82;;;5.05;;
59458;SDS011;45269;43.568;22.244;2023-09-19T12:37:25;7.47;;;5.65;;
59458;SDS011;45269;43.568;22.244;2023-09-19T12:40:03;7.43;;;5.65;;
59458;SDS011;45269;43.568;22.244;2023-09-19T12:42:39;6.32;;;5.72;;
59458;SDS011;45269;43.568;22.244;2023-09-19T12:45:06;6.68;;;5.63;;
59458;SDS011;45269;43.568;22.244;2023-09-19T12:47:34;6.80;;;5.20;;
59458;SDS011;45269;43.568;22.244;2023-09-19T12:50:10;7.28;;;6.05;;
59458;SDS011;45269;43.568;22.244;2023-09-19T12:52:46;8.57;;;5.80;;
59458;SDS011;45269;43.568;22.244;2023-09-19T12:55:25;6.38;;;5.85;;
59458;SDS011;45269;43.568;22.244;2023-09-19T13:00:36;8.40;;;5.93;;
59458;SDS011;45269;43.568;22.244;2023-09-19T13:05:57;7.75;;;5.82;;
59458;SDS011;45269;43.568;22.244;2023-09-19T13:13:36;6.63;;;6.03;;
59458;SDS011;45269;43.568;22.244;2023-09-19T13:16:02;9.05;;;6.15;;
59458;SDS011;45269;43.568;22.244;2023-09-19T13:18:28;7.32;;;6.30;;
59458;SDS011;45269;43.568;22.244;2023-09-19T13:21:10;10.10;;;6.15;;
59458;SDS011;45269;43.568;22.244;2023-09-19T13:23:37;6.97;;;6.00;;
59458;SDS011;45269;43.568;22.244;2023-09-19T13:26:03;6.40;;;5.80;;
59458;SDS011;45269;43.568;22.244;2023-09-19T13:28:31;8.70;;;6.10;;
59458;SDS011;45269;43.568;22.244;2023-09-19T13:30:56;8.25;;;6.05;;
59458;SDS011;45269;43.568;22.244;2023-09-19T13:33:22;12.00;;;6.38;;
59458;SDS011;45269;43.568;22.244;2023-09-19T13:35:47;6.85;;;6.07;;
59458;SDS011;45269;43.568;22.244;2023-09-19T13:38:13;7.82;;;6.88;;
59458;SDS011;45269;43.568;22.244;2023-09-19T13:40:39;7.30;;;6.60;;
59458;SDS011;45269;43.568;22.244;2023-09-19T13:43:07;6.93;;;6.32;;
59458;SDS011;45269;43.568;22.244;2023-09-19T13:45:32;7.25;;;6.55;;
59458;SDS011;45269;43.568;22.244;2023-09-19T13:47:57;10.30;;;7.07;;
59458;SDS011;45269;43.568;22.244;2023-09-19T13:50:26;9.07;;;7.20;;
59458;SDS011;45269;43.568;22.244;2023-09-19T13:52:51;7.85;;;7.15;;
59458;SDS011;45269;43.568;22.244;2023-09-19T13:55:18;7.65;;;6.90;;
59458;SDS011;45269;43.568;22.244;2023-09-19T13:57:46;7.45;;;6.78;;
59458;SDS011;45269;43.568;22.244;2023-09-19T14:00:12;9.98;;;6.47;;
59458;SDS011;45269;43.568;22.244;2023-09-19T14:02:41;7.00;;;6.30;;
59458;SDS011;45269;43.568;22.244;2023-09-19T14:05:08;7.82;;;7.07;;
59458;SDS011;45269;43.568;22.244;2023-09-19T14:07:33;8.52;;;6.85;;
59458;SDS011;45269;43.568;22.244;2023-09-19T14:09:58;8.85;;;6.15;;
59458;SDS011;45269;43.568;22.244;2023-09-19T14:12:24;9.00;;;6.13;;
59458;SDS011;45269;43.568;22.244;2023-09-19T14:14:49;7.00;;;6.40;;
59458;SDS011;45269;43.568;22.244;2023-09-19T14:17:16;7.93;;;7.15;;
59458;SDS011;45269;43.568;22.244;2023-09-19T14:19:41;8.00;;;7.20;;
59458;SDS011;45269;43.568;22.244;2023-09-19T14:22:09;9.07;;;6.65;;
59458;SDS011;45269;43.568;22.244;2023-09-19T14:24:35;7.10;;;6.30;;
59458;SDS011;45269;43.568;22.244;2023-09-19T14:27:01;7.97;;;7.18;;
59458;SDS011;45269;43.568;22.244;2023-09-19T14:29:29;8.55;;;6.88;;
59458;SDS011;45269;43.568;22.244;2023-09-19T14:31:54;7.30;;;6.70;;
59458;SDS011;45269;43.568;22.244;2023-09-19T14:34:20;9.45;;;6.93;;
59458;SDS011;45269;43.568;22.244;2023-09-19T14:36:45;11.88;;;6.72;;
59458;SDS011;45269;43.568;22.244;2023-09-19T14:39:10;7.65;;;6.82;;
59458;SDS011;45269;43.568;22.244;2023-09-19T14:41:36;7.85;;;7.00;;
59458;SDS011;45269;43.568;22.244;2023-09-19T14:44:04;10.50;;;6.85;;
59458;SDS011;45269;43.568;22.244;2023-09-19T14:46:30;7.47;;;6.78;;
59458;SDS011;45269;43.568;22.244;2023-09-19T14:48:56;7.50;;;6.82;;
59458;SDS011;45269;43.568;22.244;2023-09-19T14:53:49;8.20;;;6.50;;
59458;SDS011;45269;43.568;22.244;2023-09-19T14:56:15;8.85;;;7.07;;
59458;SDS011;45269;43.568;22.244;2023-09-19T14:58:45;7.55;;;6.68;;
59458;SDS011;45269;43.568;22.244;2023-09-19T15:01:11;7.47;;;6.68;;
59458;SDS011;45269;43.568;22.244;2023-09-19T15:03:37;7.95;;;7.15;;
59458;SDS011;45269;43.568;22.244;2023-09-19T15:06:04;9.13;;;6.68;;
59458;SDS011;45269;43.568;22.244;2023-09-19T15:08:34;10.45;;;6.68;;
59458;SDS011;45269;43.568;22.244;2023-09-19T15:11:03;7.57;;;6.78;;
59458;SDS011;45269;43.568;22.244;2023-09-19T15:13:30;7.63;;;6.15;;
59458;SDS011;45269;43.568;22.244;2023-09-19T15:16:03;7.30;;;6.18;;
59458;SDS011;45269;43.568;22.244;2023-09-19T15:18:29;9.50;;;7.13;;
59458;SDS011;45269;43.568;22.244;2023-09-19T15:21:02;7.60;;;6.72;;
59458;SDS011;45269;43.568;22.244;2023-09-19T15:23:29;10.30;;;7.70;;
59458;SDS011;45269;43.568;22.244;2023-09-19T15:25:54;8.40;;;7.25;;
59458;SDS011;45269;43.568;22.244;2023-09-19T15:28:21;12.43;;;7.53;;
59458;SDS011;45269;43.568;22.244;2023-09-19T15:30:48;8.27;;;7.20;;
59458;SDS011;45269;43.568;22.244;2023-09-19T15:33:13;8.82;;;6.80;;